Kingswood, United Kingdom
Current Conditions -  °F | °C
As of 10:20 PM on Wednesday 22 Oct 2014 (Local Time) from EGGD Reporting Station
Scattered Clouds Scattered Clouds  
Wind Chill: 52°   Ceiling: Unl
Heat Index: 52°   Visibility: 6mi
Dew Point: 48°   Wind: 9mph
Humidity: 88%   Direction: 230°SW
Pressure: 30.21"   Gusts: NA
Location:  51.46°N, 2.5°W
Report Text: EGGD 222120Z 23008KT 9999 SCT019 11/09 Q1023
Loading
Personal Weather Stations






























Interactive Weather Map
Tropical Storm Tracking
New forecast layout! Learn more

10-Day Weather Forecast

Advertisements
Track Severe Weather on mobile